UUEE/SVO METAR and TAF weather

Enter ICAO airport designator
Station Type Date Time Source
UUEE METAR 2019/12/09 22:00 UTC NOAA

UUEE 092200Z 22005MPS 9999 OVC007 03/02 Q1007 R24L/290051 R24R/290051 NOSIG


Station Type Date Time Source
UUEE Decoded METAR 2019/12/09 22:00 UTC NOAA

Moscow / Sheremet'Ye , Russia (UUEE) 55-59N 037-30E
Dec 09, 2019 - 05:00 PM EST / 2019.12.09 2200 UTC
Wind: from the SW (220 degrees) at 11 MPH (10 KT):0
Visibility: greater than 7 mile(s):0
Sky conditions: overcast
Temperature: 37 F (3 C)
Dew Point: 35 F (2 C)
Relative Humidity: 93%
Pressure (altimeter): 29.74 in. Hg (1007 hPa)
ob: UUEE 092200Z 22005MPS 9999 OVC007 03/02 Q1007 R24L/290051 R24R/290051 NOSIG
cycle: 22

Station Type Date Time Source
UUEE TAF 2019/12/09 21:22 UTC NOAA

TAF UUEE 091953Z 0921/1021 22006G11MPS 9999 BKN011 TX03/0921Z TN01/1003Z
TEMPO 0921/0924 -RA OVC006
TEMPO 1000/1006 2500 BR FEW003 OVC005
TEMPO 1015/1021 2900 -SHRASN OVC006 SCT011CB

Example: see airport list